Time,TemperatureF,DewpointF,PressureIn,WindDirection,WindDirectionDegrees,WindSpeedMPH,WindSpeedGustMPH,Humidity,HourlyPrecipIn,Conditions,Clouds,dailyrainin,SolarRadiationWatts/m^2,SoftwareType,DateUTC
2013-03-18 00:02:00,54.0,4.0,-100.00,SW,217,11.0,21.0,13,0.00,,,0.00,0.000000,,2013-03-18 07:02:00,
2013-03-18 00:52:00,58.0,6.0,-100.00,NW,309,13.0,22.0,12,0.00,,,0.00,0.000000,,2013-03-18 07:52:00,
2013-03-18 01:02:00,58.0,6.0,-100.00,NW,309,13.0,22.0,12,0.00,,,0.00,0.000000,,2013-03-18 08:02:00,
2013-03-18 01:52:00,54.0,6.0,-100.00,NW,322,13.0,20.0,14,0.00,,,0.00,0.000000,,2013-03-18 08:52:00,
2013-03-18 02:02:00,54.0,6.0,-100.00,NW,322,13.0,20.0,14,0.00,,,0.00,0.000000,,2013-03-18 09:02:00,
2013-03-18 02:53:00,56.0,4.0,-100.00,NW,318,13.0,19.0,12,0.00,,,0.00,0.000000,,2013-03-18 09:53:00,
2013-03-18 03:03:00,56.0,4.0,-100.00,NW,318,13.0,19.0,12,0.00,,,0.00,0.000000,,2013-03-18 10:03:00,
2013-03-18 03:12:00,56.0,4.0,-100.00,NW,318,13.0,19.0,12,0.00,,,0.00,0.000000,,2013-03-18 10:12:00,
2013-03-18 03:23:00,56.0,4.0,-100.00,NW,318,13.0,19.0,12,0.00,,,0.00,0.000000,,2013-03-18 10:23:00,
2013-03-18 03:53:00,57.0,5.0,-100.00,NNW,331,11.0,19.0,12,0.00,,,0.00,0.000000,,2013-03-18 10:53:00,
2013-03-18 04:03:00,57.0,5.0,-100.00,NNW,331,11.0,19.0,12,0.00,,,0.00,0.000000,,2013-03-18 11:03:00,
2013-03-18 04:52:00,56.0,4.0,-100.00,NNW,327,10.0,18.0,12,0.00,,,0.00,0.000000,,2013-03-18 11:52:00,
2013-03-18 05:02:00,56.0,4.0,-100.00,NNW,327,10.0,18.0,12,0.00,,,0.00,0.000000,,2013-03-18 12:02:00,
2013-03-18 05:52:00,55.0,3.0,-100.00,NW,322,9.0,14.0,12,0.00,,,0.00,0.000000,,2013-03-18 12:52:00,
2013-03-18 06:02:00,55.0,3.0,-100.00,NW,322,9.0,14.0,12,0.00,,,0.00,0.000000,,2013-03-18 13:02:00,
2013-03-18 06:52:00,54.0,6.0,-100.00,NNW,330,11.0,14.0,14,0.00,,,0.00,0.000000,,2013-03-18 13:52:00,
2013-03-18 07:02:00,54.0,6.0,-100.00,NNW,330,11.0,14.0,14,0.00,,,0.00,0.000000,,2013-03-18 14:02:00,
2013-03-18 07:52:00,53.0,4.0,-100.00,NW,326,6.0,13.0,13,0.00,,,0.00,11.000000,,2013-03-18 14:52:00,
2013-03-18 08:02:00,53.0,4.0,-100.00,NW,326,6.0,13.0,13,0.00,,,0.00,11.000000,,2013-03-18 15:02:00,
2013-03-18 08:52:00,57.0,3.0,-100.00,NW,317,4.0,9.0,11,0.00,,,0.00,177.000000,,2013-03-18 15:52:00,
2013-03-18 09:02:00,57.0,3.0,-100.00,NW,317,4.0,9.0,11,0.00,,,0.00,177.000000,,2013-03-18 16:02:00,
2013-03-18 09:12:00,57.0,3.0,-100.00,NW,317,4.0,9.0,11,0.00,,,0.00,177.000000,,2013-03-18 16:12:00,
2013-03-18 09:22:00,57.0,3.0,-100.00,NW,317,4.0,9.0,11,0.00,,,0.00,177.000000,,2013-03-18 16:22:00,
2013-03-18 09:52:00,61.0,4.0,-100.00,NW,319,2.0,8.0,10,0.00,,,0.00,430.000000,,2013-03-18 16:52:00,
2013-03-18 10:02:00,61.0,4.0,-100.00,NW,319,2.0,8.0,10,0.00,,,0.00,430.000000,,2013-03-18 17:02:00,
2013-03-18 10:52:00,62.0,3.0,-100.00,North,355,3.0,9.0,9,0.00,,,0.00,689.000000,,2013-03-18 17:52:00,
2013-03-18 11:02:00,62.0,3.0,-100.00,North,355,3.0,9.0,9,0.00,,,0.00,689.000000,,2013-03-18 18:02:00,
2013-03-18 11:52:00,64.0,-1.0,-100.00,SSE,162,8.0,13.0,7,0.00,,,0.00,890.000000,,2013-03-18 18:52:00,
2013-03-18 12:52:00,68.0,2.0,-100.00,South,175,7.0,15.0,7,0.00,,,0.00,1006.000000,,2013-03-18 19:52:00,
2013-03-18 13:02:00,68.0,2.0,-100.00,South,175,7.0,15.0,7,0.00,,,0.00,1006.000000,,2013-03-18 20:02:00,
2013-03-18 13:12:00,68.0,2.0,-100.00,South,175,7.0,15.0,7,0.00,,,0.00,1006.000000,,2013-03-18 20:12:00,
2013-03-18 13:22:00,68.0,2.0,-100.00,South,175,7.0,15.0,7,0.00,,,0.00,1006.000000,,2013-03-18 20:22:00,
2013-03-18 13:52:00,66.0,0.0,-100.00,South,181,9.0,16.0,7,0.00,,,0.00,1004.000000,,2013-03-18 20:52:00,
2013-03-18 14:53:00,69.0,-1.0,-100.00,SSW,212,8.0,23.0,6,0.00,,,0.00,993.000000,,2013-03-18 21:53:00,
2013-03-18 15:03:00,69.0,-1.0,-100.00,SSW,212,8.0,23.0,6,0.00,,,0.00,993.000000,,2013-03-18 22:03:00,
2013-03-18 15:52:00,68.0,2.0,-100.00,SSW,197,11.0,21.0,7,0.00,,,0.00,718.000000,,2013-03-18 22:52:00,
2013-03-18 16:02:00,68.0,2.0,-100.00,SSW,197,11.0,21.0,7,0.00,,,0.00,718.000000,,2013-03-18 23:02:00,
2013-03-18 16:53:00,64.0,2.0,-100.00,South,183,16.0,23.0,8,0.00,,,0.00,391.000000,,2013-03-18 23:53:00,
2013-03-18 17:52:00,64.0,8.0,-100.00,SSW,200,14.0,26.0,11,0.00,,,0.00,302.000000,,2013-03-19 00:52:00,
2013-03-18 18:02:00,64.0,8.0,-100.00,SSW,200,14.0,26.0,11,0.00,,,0.00,302.000000,,2013-03-19 01:02:00,
2013-03-18 18:52:00,62.0,18.0,-100.00,SSW,201,15.0,24.0,18,0.00,,,0.00,125.000000,,2013-03-19 01:52:00,
2013-03-18 19:02:00,62.0,18.0,-100.00,SSW,201,15.0,24.0,18,0.00,,,0.00,125.000000,,2013-03-19 02:02:00,
2013-03-18 19:12:00,62.0,18.0,-100.00,SSW,201,15.0,24.0,18,0.00,,,0.00,125.000000,,2013-03-19 02:12:00,
2013-03-18 19:22:00,62.0,18.0,-100.00,SSW,201,15.0,24.0,18,0.00,,,0.00,125.000000,,2013-03-19 02:22:00,
2013-03-18 19:52:00,60.0,19.0,-100.00,SW,219,12.0,20.0,20,0.00,,,0.00,13.000000,,2013-03-19 02:52:00,
2013-03-18 20:02:00,60.0,19.0,-100.00,SW,219,12.0,20.0,20,0.00,,,0.00,13.000000,,2013-03-19 03:02:00,
2013-03-18 20:12:00,60.0,19.0,-100.00,SW,219,12.0,20.0,20,0.00,,,0.00,13.000000,,2013-03-19 03:12:00,
2013-03-18 20:22:00,60.0,19.0,-100.00,SW,219,12.0,20.0,20,0.00,,,0.00,13.000000,,2013-03-19 03:22:00,
2013-03-18 20:53:00,57.0,14.0,-100.00,SW,220,15.0,21.0,18,0.00,,,0.00,0.000000,,2013-03-19 03:53:00,
2013-03-18 21:03:00,57.0,14.0,-100.00,SW,220,15.0,21.0,18,0.00,,,0.00,0.000000,,2013-03-19 04:03:00,
2013-03-18 21:13:00,57.0,14.0,-100.00,SW,220,15.0,21.0,18,0.00,,,0.00,0.000000,,2013-03-19 04:13:00,
2013-03-18 21:22:00,57.0,14.0,-100.00,SW,220,15.0,21.0,18,0.00,,,0.00,0.000000,,2013-03-19 04:22:00,
2013-03-18 21:52:00,56.0,12.0,-100.00,SSW,196,19.0,27.0,17,0.00,,,0.00,0.000000,,2013-03-19 04:52:00,
2013-03-18 22:02:00,56.0,12.0,-100.00,SSW,196,19.0,27.0,17,0.00,,,0.00,0.000000,,2013-03-19 05:02:00,
2013-03-18 22:11:00,56.0,12.0,-100.00,SSW,196,19.0,27.0,17,0.00,,,0.00,0.000000,,2013-03-19 05:11:00,
2013-03-18 22:22:00,56.0,12.0,-100.00,SSW,196,19.0,27.0,17,0.00,,,0.00,0.000000,,2013-03-19 05:22:00,
2013-03-18 22:52:00,54.0,9.0,-100.00,SSW,209,16.0,26.0,16,0.00,,,0.00,0.000000,,2013-03-19 05:52:00,
2013-03-18 23:02:00,54.0,9.0,-100.00,SSW,209,16.0,26.0,16,0.00,,,0.00,0.000000,,2013-03-19 06:02:00,
2013-03-18 23:12:00,54.0,9.0,-100.00,SSW,209,16.0,26.0,16,0.00,,,0.00,0.000000,,2013-03-19 06:12:00,
2013-03-18 23:22:00,54.0,9.0,-100.00,SSW,209,16.0,26.0,16,0.00,,,0.00,0.000000,,2013-03-19 06:22:00,
2013-03-18 23:52:00,55.0,14.0,-100.00,WSW,243,10.0,24.0,19,0.00,,,0.00,0.000000,,2013-03-19 06:52:00,